Nevers-Fourchambault Airport

Airport
ICAO code: 
LFQG
IATA Code: 
NVS
Summary
ICAO Region: 
EUR
Territory: 
Location: 
, Bourgogne
Serving: 
Nevers
Elevation: 
602 ft
Coordinates: 
Aerial View: 
47° 0' 9.45" N, 3° 6' 47.999" E
Metar
Observation
LFQG 300830Z AUTO 19003KT 160V230 9999 BKN041 OVC052 01/00 Q1024
Station
Nevers
Date/Time
2021-11-30 08:30:00
Wind direction
190°
Wind speed
03 kts
Lowest cloud amount
broken clouds
Temperature
1°C
Dew point
0°C
Humidity
93%
QNH
1024 hPa
Weather condition
n/a

Runways

Designator Length Width Surface Rops
12/30 1630 30 ASP No/No
Airport map: 
Aerial View: 

SKYbrary Partners:

Safety knowledge contributed by: